sensor_id;sensor_type;location;lat;lon;timestamp;P1;durP1;ratioP1;P2;durP2;ratioP2
52438;SDS011;38359;53.150;6.504;2022-08-18T00:01:14;13.95;;;6.05;;
52438;SDS011;38359;53.150;6.504;2022-08-18T00:03:41;20.23;;;7.13;;
52438;SDS011;38359;53.150;6.504;2022-08-18T00:06:09;14.90;;;6.35;;
52438;SDS011;38359;53.150;6.504;2022-08-18T00:08:35;14.95;;;5.68;;
52438;SDS011;38359;53.150;6.504;2022-08-18T00:11:00;16.77;;;7.22;;
52438;SDS011;38359;53.150;6.504;2022-08-18T00:13:26;16.50;;;6.60;;
52438;SDS011;38359;53.150;6.504;2022-08-18T00:15:52;14.88;;;6.20;;
52438;SDS011;38359;53.150;6.504;2022-08-18T00:18:18;12.48;;;6.60;;
52438;SDS011;38359;53.150;6.504;2022-08-18T00:20:44;16.95;;;6.53;;
52438;SDS011;38359;53.150;6.504;2022-08-18T00:23:10;16.20;;;6.72;;
52438;SDS011;38359;53.150;6.504;2022-08-18T00:25:35;21.27;;;7.82;;
52438;SDS011;38359;53.150;6.504;2022-08-18T00:28:02;18.08;;;6.93;;
52438;SDS011;38359;53.150;6.504;2022-08-18T00:30:28;15.50;;;6.78;;
52438;SDS011;38359;53.150;6.504;2022-08-18T00:32:57;17.30;;;7.78;;
52438;SDS011;38359;53.150;6.504;2022-08-18T00:35:28;21.08;;;8.40;;
52438;SDS011;38359;53.150;6.504;2022-08-18T00:37:58;19.00;;;7.72;;
52438;SDS011;38359;53.150;6.504;2022-08-18T00:40:28;19.70;;;7.80;;
52438;SDS011;38359;53.150;6.504;2022-08-18T00:43:10;17.50;;;6.95;;
52438;SDS011;38359;53.150;6.504;2022-08-18T00:45:41;12.45;;;7.80;;
52438;SDS011;38359;53.150;6.504;2022-08-18T00:48:08;19.70;;;6.82;;
52438;SDS011;38359;53.150;6.504;2022-08-18T00:50:41;19.92;;;8.35;;
52438;SDS011;38359;53.150;6.504;2022-08-18T00:53:42;17.77;;;7.07;;
52438;SDS011;38359;53.150;6.504;2022-08-18T00:56:16;17.50;;;7.50;;
52438;SDS011;38359;53.150;6.504;2022-08-18T00:58:57;17.77;;;7.20;;
52438;SDS011;38359;53.150;6.504;2022-08-18T01:01:32;19.77;;;7.93;;
52438;SDS011;38359;53.150;6.504;2022-08-18T01:04:02;18.55;;;8.30;;
52438;SDS011;38359;53.150;6.504;2022-08-18T01:07:01;15.07;;;7.10;;
52438;SDS011;38359;53.150;6.504;2022-08-18T01:09:33;16.67;;;7.63;;
52438;SDS011;38359;53.150;6.504;2022-08-18T01:11:59;18.38;;;8.13;;
52438;SDS011;38359;53.150;6.504;2022-08-18T01:14:25;19.05;;;7.25;;
52438;SDS011;38359;53.150;6.504;2022-08-18T01:16:51;16.80;;;7.70;;
52438;SDS011;38359;53.150;6.504;2022-08-18T01:19:36;18.63;;;8.57;;
52438;SDS011;38359;53.150;6.504;2022-08-18T01:25:02;22.20;;;8.32;;
52438;SDS011;38359;53.150;6.504;2022-08-18T01:27:49;25.65;;;9.50;;
52438;SDS011;38359;53.150;6.504;2022-08-18T01:30:15;16.45;;;8.10;;
52438;SDS011;38359;53.150;6.504;2022-08-18T01:32:42;18.35;;;7.82;;
52438;SDS011;38359;53.150;6.504;2022-08-18T01:35:12;16.25;;;7.28;;
52438;SDS011;38359;53.150;6.504;2022-08-18T01:37:41;20.42;;;8.20;;
52438;SDS011;38359;53.150;6.504;2022-08-18T01:40:08;24.75;;;9.45;;
52438;SDS011;38359;53.150;6.504;2022-08-18T01:42:36;18.60;;;8.48;;
52438;SDS011;38359;53.150;6.504;2022-08-18T01:45:04;20.23;;;8.48;;
52438;SDS011;38359;53.150;6.504;2022-08-18T01:47:32;20.25;;;9.68;;
52438;SDS011;38359;53.150;6.504;2022-08-18T01:50:00;25.45;;;9.93;;
52438;SDS011;38359;53.150;6.504;2022-08-18T01:52:27;24.88;;;9.30;;
52438;SDS011;38359;53.150;6.504;2022-08-18T01:54:54;20.05;;;8.52;;
52438;SDS011;38359;53.150;6.504;2022-08-18T01:57:24;23.02;;;9.77;;
52438;SDS011;38359;53.150;6.504;2022-08-18T01:59:50;22.48;;;9.48;;
52438;SDS011;38359;53.150;6.504;2022-08-18T02:02:18;22.65;;;10.00;;
52438;SDS011;38359;53.150;6.504;2022-08-18T02:04:50;22.42;;;11.15;;
52438;SDS011;38359;53.150;6.504;2022-08-18T02:07:21;21.75;;;9.43;;
52438;SDS011;38359;53.150;6.504;2022-08-18T02:09:47;13.75;;;9.13;;
52438;SDS011;38359;53.150;6.504;2022-08-18T02:12:13;24.10;;;9.65;;
52438;SDS011;38359;53.150;6.504;2022-08-18T02:14:38;24.05;;;9.90;;
52438;SDS011;38359;53.150;6.504;2022-08-18T02:17:05;27.10;;;12.55;;
52438;SDS011;38359;53.150;6.504;2022-08-18T02:19:34;25.42;;;10.65;;
52438;SDS011;38359;53.150;6.504;2022-08-18T02:22:04;19.35;;;10.10;;
52438;SDS011;38359;53.150;6.504;2022-08-18T02:24:31;25.95;;;10.30;;
52438;SDS011;38359;53.150;6.504;2022-08-18T02:26:57;21.20;;;10.80;;
52438;SDS011;38359;53.150;6.504;2022-08-18T02:29:23;19.25;;;10.02;;
52438;SDS011;38359;53.150;6.504;2022-08-18T02:31:49;22.92;;;10.32;;
52438;SDS011;38359;53.150;6.504;2022-08-18T02:34:15;25.58;;;11.18;;
52438;SDS011;38359;53.150;6.504;2022-08-18T02:36:42;29.80;;;10.95;;
52438;SDS011;38359;53.150;6.504;2022-08-18T02:39:08;23.17;;;11.57;;
52438;SDS011;38359;53.150;6.504;2022-08-18T02:41:34;21.73;;;10.82;;
52438;SDS011;38359;53.150;6.504;2022-08-18T02:44:01;25.40;;;11.85;;
52438;SDS011;38359;53.150;6.504;2022-08-18T02:46:27;17.30;;;10.10;;
52438;SDS011;38359;53.150;6.504;2022-08-18T02:48:52;22.98;;;10.10;;
52438;SDS011;38359;53.150;6.504;2022-08-18T02:51:19;26.75;;;11.40;;
52438;SDS011;38359;53.150;6.504;2022-08-18T02:53:46;22.88;;;10.77;;
52438;SDS011;38359;53.150;6.504;2022-08-18T02:58:52;20.92;;;10.93;;
52438;SDS011;38359;53.150;6.504;2022-08-18T03:01:25;23.42;;;11.73;;
52438;SDS011;38359;53.150;6.504;2022-08-18T03:03:59;22.25;;;11.60;;
52438;SDS011;38359;53.150;6.504;2022-08-18T03:06:26;31.05;;;13.02;;
52438;SDS011;38359;53.150;6.504;2022-08-18T03:08:53;24.10;;;12.98;;
52438;SDS011;38359;53.150;6.504;2022-08-18T03:11:20;26.50;;;11.73;;
52438;SDS011;38359;53.150;6.504;2022-08-18T03:13:51;32.67;;;14.07;;
52438;SDS011;38359;53.150;6.504;2022-08-18T03:16:17;27.90;;;11.07;;
52438;SDS011;38359;53.150;6.504;2022-08-18T03:18:44;19.02;;;11.88;;
52438;SDS011;38359;53.150;6.504;2022-08-18T03:21:14;28.52;;;13.05;;
52438;SDS011;38359;53.150;6.504;2022-08-18T03:23:47;27.95;;;11.98;;
52438;SDS011;38359;53.150;6.504;2022-08-18T03:26:15;31.30;;;14.00;;
52438;SDS011;38359;53.150;6.504;2022-08-18T03:28:44;25.95;;;13.40;;
52438;SDS011;38359;53.150;6.504;2022-08-18T03:31:12;25.35;;;14.45;;
52438;SDS011;38359;53.150;6.504;2022-08-18T03:33:42;22.48;;;12.40;;
52438;SDS011;38359;53.150;6.504;2022-08-18T03:36:11;27.88;;;14.05;;
52438;SDS011;38359;53.150;6.504;2022-08-18T03:38:43;20.42;;;12.38;;
52438;SDS011;38359;53.150;6.504;2022-08-18T03:41:12;30.48;;;13.82;;
52438;SDS011;38359;53.150;6.504;2022-08-18T03:43:41;29.17;;;14.25;;
52438;SDS011;38359;53.150;6.504;2022-08-18T03:46:08;27.05;;;15.60;;
52438;SDS011;38359;53.150;6.504;2022-08-18T03:48:36;22.48;;;15.23;;
52438;SDS011;38359;53.150;6.504;2022-08-18T03:51:05;26.45;;;16.48;;
52438;SDS011;38359;53.150;6.504;2022-08-18T03:53:36;22.52;;;14.07;;
52438;SDS011;38359;53.150;6.504;2022-08-18T03:56:05;24.35;;;13.60;;
52438;SDS011;38359;53.150;6.504;2022-08-18T03:58:43;26.42;;;15.45;;
52438;SDS011;38359;53.150;6.504;2022-08-18T04:01:19;22.25;;;13.95;;
52438;SDS011;38359;53.150;6.504;2022-08-18T04:03:50;27.35;;;12.80;;
52438;SDS011;38359;53.150;6.504;2022-08-18T04:06:24;23.02;;;14.05;;
52438;SDS011;38359;53.150;6.504;2022-08-18T04:08:58;20.52;;;12.05;;
52438;SDS011;38359;53.150;6.504;2022-08-18T04:11:30;18.33;;;12.98;;
52438;SDS011;38359;53.150;6.504;2022-08-18T04:13:58;22.02;;;12.63;;
52438;SDS011;38359;53.150;6.504;2022-08-18T04:16:24;24.23;;;12.80;;
52438;SDS011;38359;53.150;6.504;2022-08-18T04:18:52;21.23;;;13.23;;
52438;SDS011;38359;53.150;6.504;2022-08-18T04:21:20;18.83;;;12.57;;
52438;SDS011;38359;53.150;6.504;2022-08-18T04:23:47;17.20;;;13.25;;
52438;SDS011;38359;53.150;6.504;2022-08-18T04:26:13;21.33;;;13.40;;
52438;SDS011;38359;53.150;6.504;2022-08-18T04:28:39;21.52;;;13.65;;
52438;SDS011;38359;53.150;6.504;2022-08-18T04:31:08;22.58;;;13.55;;
52438;SDS011;38359;53.150;6.504;2022-08-18T04:33:37;20.63;;;13.95;;
52438;SDS011;38359;53.150;6.504;2022-08-18T04:36:10;20.35;;;13.82;;
52438;SDS011;38359;53.150;6.504;2022-08-18T04:38:39;24.60;;;14.43;;
52438;SDS011;38359;53.150;6.504;2022-08-18T04:41:09;17.42;;;13.82;;
52438;SDS011;38359;53.150;6.504;2022-08-18T04:43:37;20.73;;;14.38;;
52438;SDS011;38359;53.150;6.504;2022-08-18T04:46:03;25.52;;;13.30;;
52438;SDS011;38359;53.150;6.504;2022-08-18T04:48:31;21.02;;;13.82;;
52438;SDS011;38359;53.150;6.504;2022-08-18T04:51:08;17.67;;;12.32;;
52438;SDS011;38359;53.150;6.504;2022-08-18T04:53:39;20.45;;;13.65;;
52438;SDS011;38359;53.150;6.504;2022-08-18T04:56:11;20.77;;;13.48;;
52438;SDS011;38359;53.150;6.504;2022-08-18T04:59:01;21.23;;;14.45;;
52438;SDS011;38359;53.150;6.504;2022-08-18T05:01:34;20.00;;;14.45;;
52438;SDS011;38359;53.150;6.504;2022-08-18T05:04:07;22.80;;;15.52;;
52438;SDS011;38359;53.150;6.504;2022-08-18T05:06:37;22.65;;;15.48;;
52438;SDS011;38359;53.150;6.504;2022-08-18T05:09:05;24.90;;;15.23;;
52438;SDS011;38359;53.150;6.504;2022-08-18T05:11:33;22.73;;;15.13;;
52438;SDS011;38359;53.150;6.504;2022-08-18T05:14:01;21.38;;;16.17;;
52438;SDS011;38359;53.150;6.504;2022-08-18T05:16:29;24.52;;;17.95;;
52438;SDS011;38359;53.150;6.504;2022-08-18T05:19:04;22.00;;;15.88;;
52438;SDS011;38359;53.150;6.504;2022-08-18T05:21:32;19.15;;;15.18;;
52438;SDS011;38359;53.150;6.504;2022-08-18T05:24:00;23.48;;;16.20;;
52438;SDS011;38359;53.150;6.504;2022-08-18T05:26:27;22.52;;;17.45;;
52438;SDS011;38359;53.150;6.504;2022-08-18T05:28:53;24.52;;;17.33;;
52438;SDS011;38359;53.150;6.504;2022-08-18T05:31:20;21.58;;;18.35;;
52438;SDS011;38359;53.150;6.504;2022-08-18T05:33:49;21.80;;;17.05;;
52438;SDS011;38359;53.150;6.504;2022-08-18T05:38:57;20.88;;;17.45;;
52438;SDS011;38359;53.150;6.504;2022-08-18T05:41:53;19.90;;;17.20;;
52438;SDS011;38359;53.150;6.504;2022-08-18T05:44:31;18.70;;;15.05;;
52438;SDS011;38359;53.150;6.504;2022-08-18T05:47:12;23.23;;;15.98;;
52438;SDS011;38359;53.150;6.504;2022-08-18T05:49:45;19.02;;;14.60;;
52438;SDS011;38359;53.150;6.504;2022-08-18T05:52:19;19.80;;;14.77;;
52438;SDS011;38359;53.150;6.504;2022-08-18T05:54:53;16.83;;;13.50;;
52438;SDS011;38359;53.150;6.504;2022-08-18T05:57:45;16.75;;;12.27;;
52438;SDS011;38359;53.150;6.504;2022-08-18T06:00:15;18.52;;;12.10;;
52438;SDS011;38359;53.150;6.504;2022-08-18T06:05:52;10.70;;;9.43;;
52438;SDS011;38359;53.150;6.504;2022-08-18T06:08:24;15.55;;;10.18;;
52438;SDS011;38359;53.150;6.504;2022-08-18T06:11:00;14.52;;;9.65;;
52438;SDS011;38359;53.150;6.504;2022-08-18T06:13:26;14.45;;;9.48;;
52438;SDS011;38359;53.150;6.504;2022-08-18T06:24:10;15.50;;;9.98;;
52438;SDS011;38359;53.150;6.504;2022-08-18T06:27:13;12.90;;;9.05;;
52438;SDS011;38359;53.150;6.504;2022-08-18T06:30:31;16.67;;;10.40;;
52438;SDS011;38359;53.150;6.504;2022-08-18T06:33:05;14.23;;;9.23;;
52438;SDS011;38359;53.150;6.504;2022-08-18T06:36:15;10.63;;;7.93;;
52438;SDS011;38359;53.150;6.504;2022-08-18T06:38:54;14.55;;;8.30;;
52438;SDS011;38359;53.150;6.504;2022-08-18T06:41:58;14.63;;;7.27;;
52438;SDS011;38359;53.150;6.504;2022-08-18T06:44:35;9.52;;;7.50;;
52438;SDS011;38359;53.150;6.504;2022-08-18T06:50:05;13.85;;;7.88;;
52438;SDS011;38359;53.150;6.504;2022-08-18T06:52:38;14.15;;;7.63;;
52438;SDS011;38359;53.150;6.504;2022-08-18T06:55:18;16.17;;;7.35;;
52438;SDS011;38359;53.150;6.504;2022-08-18T07:03:23;12.13;;;6.00;;
52438;SDS011;38359;53.150;6.504;2022-08-18T07:06:07;10.85;;;5.20;;
52438;SDS011;38359;53.150;6.504;2022-08-18T07:08:51;15.50;;;5.80;;
52438;SDS011;38359;53.150;6.504;2022-08-18T07:11:25;9.73;;;4.97;;
52438;SDS011;38359;53.150;6.504;2022-08-18T07:14:20;10.63;;;5.55;;
52438;SDS011;38359;53.150;6.504;2022-08-18T07:16:47;11.07;;;4.38;;
52438;SDS011;38359;53.150;6.504;2022-08-18T07:19:15;11.85;;;4.80;;
52438;SDS011;38359;53.150;6.504;2022-08-18T07:22:00;12.55;;;4.45;;
52438;SDS011;38359;53.150;6.504;2022-08-18T07:24:38;13.32;;;4.65;;
52438;SDS011;38359;53.150;6.504;2022-08-18T07:27:11;17.35;;;5.63;;
52438;SDS011;38359;53.150;6.504;2022-08-18T07:35:39;18.50;;;5.68;;
52438;SDS011;38359;53.150;6.504;2022-08-18T07:38:16;17.45;;;5.55;;
52438;SDS011;38359;53.150;6.504;2022-08-18T07:40:57;15.93;;;5.18;;
52438;SDS011;38359;53.150;6.504;2022-08-18T07:49:32;10.35;;;4.40;;
52438;SDS011;38359;53.150;6.504;2022-08-18T07:52:05;12.18;;;4.30;;
52438;SDS011;38359;53.150;6.504;2022-08-18T08:00:49;9.40;;;3.35;;
52438;SDS011;38359;53.150;6.504;2022-08-18T08:03:56;5.72;;;3.47;;
52438;SDS011;38359;53.150;6.504;2022-08-18T08:06:53;10.38;;;3.60;;
52438;SDS011;38359;53.150;6.504;2022-08-18T08:15:15;6.05;;;2.92;;
52438;SDS011;38359;53.150;6.504;2022-08-18T08:20:46;7.97;;;2.30;;
52438;SDS011;38359;53.150;6.504;2022-08-18T08:23:44;8.27;;;2.70;;
52438;SDS011;38359;53.150;6.504;2022-08-18T08:31:49;6.93;;;2.30;;
52438;SDS011;38359;53.150;6.504;2022-08-18T08:34:38;5.30;;;2.47;;
52438;SDS011;38359;53.150;6.504;2022-08-18T08:37:20;6.93;;;2.08;;
52438;SDS011;38359;53.150;6.504;2022-08-18T08:40:07;4.45;;;2.22;;
52438;SDS011;38359;53.150;6.504;2022-08-18T08:42:47;5.18;;;2.25;;
52438;SDS011;38359;53.150;6.504;2022-08-18T08:45:20;4.65;;;2.10;;
52438;SDS011;38359;53.150;6.504;2022-08-18T08:48:13;5.25;;;2.20;;
52438;SDS011;38359;53.150;6.504;2022-08-18T08:50:47;5.53;;;2.22;;
52438;SDS011;38359;53.150;6.504;2022-08-18T08:53:42;3.78;;;1.95;;
52438;SDS011;38359;53.150;6.504;2022-08-18T08:56:19;3.95;;;1.75;;
52438;SDS011;38359;53.150;6.504;2022-08-18T08:58:57;3.38;;;1.73;;
52438;SDS011;38359;53.150;6.504;2022-08-18T09:01:31;6.00;;;2.00;;
52438;SDS011;38359;53.150;6.504;2022-08-18T09:07:05;4.95;;;2.22;;
52438;SDS011;38359;53.150;6.504;2022-08-18T09:13:02;4.38;;;1.88;;
52438;SDS011;38359;53.150;6.504;2022-08-18T09:16:08;2.87;;;1.87;;
52438;SDS011;38359;53.150;6.504;2022-08-18T09:22:02;4.32;;;2.08;;
52438;SDS011;38359;53.150;6.504;2022-08-18T09:24:49;6.50;;;2.38;;
52438;SDS011;38359;53.150;6.504;2022-08-18T09:27:31;6.93;;;2.10;;
52438;SDS011;38359;53.150;6.504;2022-08-18T09:30:35;4.60;;;2.00;;
52438;SDS011;38359;53.150;6.504;2022-08-18T09:33:17;7.85;;;2.38;;
52438;SDS011;38359;53.150;6.504;2022-08-18T09:42:29;5.78;;;2.25;;
52438;SDS011;38359;53.150;6.504;2022-08-18T09:45:39;2.88;;;1.92;;
52438;SDS011;38359;53.150;6.504;2022-08-18T09:50:58;8.80;;;2.30;;
52438;SDS011;38359;53.150;6.504;2022-08-18T10:01:56;3.53;;;1.75;;
52438;SDS011;38359;53.150;6.504;2022-08-18T10:04:27;4.90;;;1.85;;
52438;SDS011;38359;53.150;6.504;2022-08-18T10:06:54;3.58;;;1.75;;
52438;SDS011;38359;53.150;6.504;2022-08-18T10:24:32;2.28;;;1.40;;
52438;SDS011;38359;53.150;6.504;2022-08-18T10:27:05;2.85;;;1.67;;
52438;SDS011;38359;53.150;6.504;2022-08-18T10:29:55;5.15;;;1.50;;
52438;SDS011;38359;53.150;6.504;2022-08-18T10:32:23;3.85;;;1.40;;
52438;SDS011;38359;53.150;6.504;2022-08-18T10:38:13;4.38;;;1.88;;
52438;SDS011;38359;53.150;6.504;2022-08-18T10:40:59;4.60;;;1.92;;
52438;SDS011;38359;53.150;6.504;2022-08-18T10:43:39;6.13;;;2.03;;
52438;SDS011;38359;53.150;6.504;2022-08-18T10:46:18;3.20;;;1.80;;
52438;SDS011;38359;53.150;6.504;2022-08-18T10:48:57;4.55;;;1.55;;
52438;SDS011;38359;53.150;6.504;2022-08-18T10:52:00;4.55;;;1.80;;
52438;SDS011;38359;53.150;6.504;2022-08-18T10:57:29;3.58;;;1.80;;
52438;SDS011;38359;53.150;6.504;2022-08-18T11:00:33;3.38;;;1.70;;
52438;SDS011;38359;53.150;6.504;2022-08-18T11:06:08;2.67;;;1.25;;
52438;SDS011;38359;53.150;6.504;2022-08-18T11:08:43;6.25;;;1.77;;
52438;SDS011;38359;53.150;6.504;2022-08-18T11:11:12;3.47;;;1.70;;
52438;SDS011;38359;53.150;6.504;2022-08-18T11:14:11;4.75;;;2.00;;
52438;SDS011;38359;53.150;6.504;2022-08-18T11:17:04;5.55;;;1.75;;
52438;SDS011;38359;53.150;6.504;2022-08-18T11:19:48;3.35;;;1.60;;
52438;SDS011;38359;53.150;6.504;2022-08-18T11:22:26;3.28;;;1.70;;
52438;SDS011;38359;53.150;6.504;2022-08-18T11:24:55;3.58;;;1.58;;
52438;SDS011;38359;53.150;6.504;2022-08-18T11:27:24;5.43;;;1.67;;
52438;SDS011;38359;53.150;6.504;2022-08-18T11:29:53;2.92;;;1.70;;
52438;SDS011;38359;53.150;6.504;2022-08-18T11:32:33;3.50;;;1.70;;
52438;SDS011;38359;53.150;6.504;2022-08-18T11:35:21;4.32;;;1.60;;
52438;SDS011;38359;53.150;6.504;2022-08-18T11:38:00;2.85;;;1.80;;
52438;SDS011;38359;53.150;6.504;2022-08-18T11:40:30;2.88;;;1.50;;
52438;SDS011;38359;53.150;6.504;2022-08-18T11:56:04;1.95;;;1.50;;
52438;SDS011;38359;53.150;6.504;2022-08-18T11:58:46;2.38;;;1.20;;
52438;SDS011;38359;53.150;6.504;2022-08-18T12:01:35;2.03;;;1.50;;
52438;SDS011;38359;53.150;6.504;2022-08-18T12:09:43;3.40;;;1.75;;
52438;SDS011;38359;53.150;6.504;2022-08-18T12:12:16;3.88;;;1.52;;
52438;SDS011;38359;53.150;6.504;2022-08-18T12:17:57;4.97;;;1.73;;
52438;SDS011;38359;53.150;6.504;2022-08-18T12:20:22;3.10;;;1.48;;
52438;SDS011;38359;53.150;6.504;2022-08-18T12:22:48;4.95;;;1.77;;
52438;SDS011;38359;53.150;6.504;2022-08-18T12:25:15;2.38;;;1.55;;
52438;SDS011;38359;53.150;6.504;2022-08-18T12:27:43;4.93;;;1.60;;
52438;SDS011;38359;53.150;6.504;2022-08-18T12:30:09;2.85;;;1.70;;
52438;SDS011;38359;53.150;6.504;2022-08-18T12:32:36;2.05;;;1.45;;
52438;SDS011;38359;53.150;6.504;2022-08-18T12:35:03;4.25;;;1.88;;
52438;SDS011;38359;53.150;6.504;2022-08-18T12:37:31;3.97;;;1.80;;
52438;SDS011;38359;53.150;6.504;2022-08-18T12:39:58;3.58;;;1.73;;
52438;SDS011;38359;53.150;6.504;2022-08-18T12:42:25;3.88;;;1.65;;
52438;SDS011;38359;53.150;6.504;2022-08-18T12:44:51;4.35;;;1.48;;
52438;SDS011;38359;53.150;6.504;2022-08-18T12:47:24;4.60;;;1.45;;
52438;SDS011;38359;53.150;6.504;2022-08-18T12:49:51;3.83;;;1.65;;
52438;SDS011;38359;53.150;6.504;2022-08-18T12:52:17;2.17;;;1.58;;
52438;SDS011;38359;53.150;6.504;2022-08-18T12:54:44;3.05;;;1.50;;
52438;SDS011;38359;53.150;6.504;2022-08-18T12:57:21;1.75;;;1.50;;
52438;SDS011;38359;53.150;6.504;2022-08-18T12:59:50;4.10;;;1.90;;
52438;SDS011;38359;53.150;6.504;2022-08-18T13:02:16;1.95;;;1.67;;
52438;SDS011;38359;53.150;6.504;2022-08-18T13:04:43;2.75;;;1.30;;
52438;SDS011;38359;53.150;6.504;2022-08-18T13:07:10;3.28;;;1.40;;
52438;SDS011;38359;53.150;6.504;2022-08-18T13:09:37;2.42;;;1.40;;
52438;SDS011;38359;53.150;6.504;2022-08-18T13:12:04;3.30;;;1.58;;
52438;SDS011;38359;53.150;6.504;2022-08-18T13:14:30;2.88;;;1.50;;
52438;SDS011;38359;53.150;6.504;2022-08-18T13:16:57;3.75;;;1.65;;
52438;SDS011;38359;53.150;6.504;2022-08-18T13:19:22;2.00;;;1.27;;
52438;SDS011;38359;53.150;6.504;2022-08-18T13:21:48;2.05;;;1.20;;
52438;SDS011;38359;53.150;6.504;2022-08-18T13:24:14;3.75;;;1.55;;
52438;SDS011;38359;53.150;6.504;2022-08-18T13:26:41;3.20;;;1.50;;
52438;SDS011;38359;53.150;6.504;2022-08-18T13:29:09;2.13;;;1.48;;
52438;SDS011;38359;53.150;6.504;2022-08-18T13:31:35;2.40;;;1.48;;
52438;SDS011;38359;53.150;6.504;2022-08-18T13:34:02;2.75;;;1.67;;
52438;SDS011;38359;53.150;6.504;2022-08-18T13:36:31;3.55;;;1.30;;
52438;SDS011;38359;53.150;6.504;2022-08-18T13:39:13;3.45;;;1.45;;
52438;SDS011;38359;53.150;6.504;2022-08-18T13:41:47;2.53;;;1.48;;
52438;SDS011;38359;53.150;6.504;2022-08-18T13:44:16;1.67;;;1.27;;
52438;SDS011;38359;53.150;6.504;2022-08-18T13:46:44;3.65;;;1.40;;
52438;SDS011;38359;53.150;6.504;2022-08-18T13:49:15;4.82;;;1.42;;
52438;SDS011;38359;53.150;6.504;2022-08-18T13:51:43;4.50;;;1.30;;
52438;SDS011;38359;53.150;6.504;2022-08-18T13:54:11;1.38;;;1.27;;
52438;SDS011;38359;53.150;6.504;2022-08-18T13:56:44;3.70;;;1.60;;
52438;SDS011;38359;53.150;6.504;2022-08-18T13:59:10;2.00;;;1.42;;
52438;SDS011;38359;53.150;6.504;2022-08-18T14:01:36;1.95;;;1.30;;
52438;SDS011;38359;53.150;6.504;2022-08-18T14:04:03;1.27;;;1.15;;
52438;SDS011;38359;53.150;6.504;2022-08-18T14:06:29;2.95;;;1.33;;
52438;SDS011;38359;53.150;6.504;2022-08-18T14:08:55;2.50;;;1.38;;
52438;SDS011;38359;53.150;6.504;2022-08-18T14:11:22;2.40;;;1.35;;
52438;SDS011;38359;53.150;6.504;2022-08-18T14:13:52;1.92;;;1.20;;
52438;SDS011;38359;53.150;6.504;2022-08-18T14:16:18;1.80;;;1.50;;
52438;SDS011;38359;53.150;6.504;2022-08-18T14:18:48;3.75;;;1.70;;
52438;SDS011;38359;53.150;6.504;2022-08-18T14:21:39;4.82;;;1.48;;
52438;SDS011;38359;53.150;6.504;2022-08-18T14:24:28;2.17;;;1.30;;
52438;SDS011;38359;53.150;6.504;2022-08-18T14:27:23;2.90;;;1.45;;
52438;SDS011;38359;53.150;6.504;2022-08-18T14:29:55;2.60;;;1.40;;
52438;SDS011;38359;53.150;6.504;2022-08-18T14:32:28;2.58;;;1.38;;
52438;SDS011;38359;53.150;6.504;2022-08-18T14:34:55;2.15;;;1.35;;
52438;SDS011;38359;53.150;6.504;2022-08-18T14:37:24;3.25;;;1.80;;
52438;SDS011;38359;53.150;6.504;2022-08-18T14:39:50;6.85;;;1.60;;
52438;SDS011;38359;53.150;6.504;2022-08-18T14:42:16;2.10;;;1.23;;
52438;SDS011;38359;53.150;6.504;2022-08-18T14:44:43;2.88;;;1.42;;
52438;SDS011;38359;53.150;6.504;2022-08-18T14:47:09;2.80;;;1.80;;
52438;SDS011;38359;53.150;6.504;2022-08-18T14:49:35;4.22;;;1.80;;
52438;SDS011;38359;53.150;6.504;2022-08-18T14:52:02;3.30;;;1.70;;
52438;SDS011;38359;53.150;6.504;2022-08-18T14:54:28;3.47;;;1.70;;
52438;SDS011;38359;53.150;6.504;2022-08-18T14:56:56;3.97;;;1.67;;
52438;SDS011;38359;53.150;6.504;2022-08-18T14:59:24;3.40;;;1.50;;
52438;SDS011;38359;53.150;6.504;2022-08-18T15:01:52;3.78;;;1.70;;
52438;SDS011;38359;53.150;6.504;2022-08-18T15:04:18;4.47;;;1.60;;
52438;SDS011;38359;53.150;6.504;2022-08-18T15:06:45;2.92;;;1.55;;
52438;SDS011;38359;53.150;6.504;2022-08-18T15:09:12;3.53;;;1.95;;
52438;SDS011;38359;53.150;6.504;2022-08-18T15:11:38;2.50;;;1.52;;
52438;SDS011;38359;53.150;6.504;2022-08-18T15:14:04;2.08;;;1.42;;
52438;SDS011;38359;53.150;6.504;2022-08-18T15:16:30;2.40;;;1.65;;
52438;SDS011;38359;53.150;6.504;2022-08-18T15:18:58;1.73;;;1.48;;
52438;SDS011;38359;53.150;6.504;2022-08-18T15:21:26;2.08;;;1.45;;
52438;SDS011;38359;53.150;6.504;2022-08-18T15:24:11;1.75;;;1.40;;
52438;SDS011;38359;53.150;6.504;2022-08-18T15:26:56;2.05;;;1.40;;
52438;SDS011;38359;53.150;6.504;2022-08-18T15:29:23;1.98;;;1.50;;
52438;SDS011;38359;53.150;6.504;2022-08-18T15:31:50;1.42;;;1.20;;
52438;SDS011;38359;53.150;6.504;2022-08-18T15:34:16;2.60;;;1.55;;
52438;SDS011;38359;53.150;6.504;2022-08-18T15:36:42;4.43;;;1.80;;
52438;SDS011;38359;53.150;6.504;2022-08-18T15:39:08;2.35;;;1.42;;
52438;SDS011;38359;53.150;6.504;2022-08-18T15:41:35;3.30;;;1.45;;
52438;SDS011;38359;53.150;6.504;2022-08-18T15:44:05;5.93;;;1.45;;
52438;SDS011;38359;53.150;6.504;2022-08-18T15:46:33;3.60;;;1.40;;
52438;SDS011;38359;53.150;6.504;2022-08-18T15:49:02;1.90;;;1.40;;
52438;SDS011;38359;53.150;6.504;2022-08-18T15:51:31;3.47;;;1.40;;
52438;SDS011;38359;53.150;6.504;2022-08-18T15:54:03;2.50;;;1.40;;
52438;SDS011;38359;53.150;6.504;2022-08-18T15:56:31;2.70;;;1.38;;
52438;SDS011;38359;53.150;6.504;2022-08-18T15:58:57;5.47;;;1.42;;
52438;SDS011;38359;53.150;6.504;2022-08-18T16:01:28;1.85;;;1.40;;
52438;SDS011;38359;53.150;6.504;2022-08-18T16:03:54;3.35;;;1.50;;
52438;SDS011;38359;53.150;6.504;2022-08-18T16:06:21;4.07;;;1.45;;
52438;SDS011;38359;53.150;6.504;2022-08-18T16:08:50;3.00;;;1.60;;
52438;SDS011;38359;53.150;6.504;2022-08-18T16:11:17;3.65;;;1.15;;
52438;SDS011;38359;53.150;6.504;2022-08-18T16:13:43;4.43;;;1.42;;
52438;SDS011;38359;53.150;6.504;2022-08-18T16:16:11;3.85;;;1.48;;
52438;SDS011;38359;53.150;6.504;2022-08-18T16:18:41;2.05;;;1.48;;
52438;SDS011;38359;53.150;6.504;2022-08-18T16:21:10;1.80;;;1.40;;
52438;SDS011;38359;53.150;6.504;2022-08-18T16:23:40;4.10;;;1.48;;
52438;SDS011;38359;53.150;6.504;2022-08-18T16:26:09;2.17;;;1.35;;
52438;SDS011;38359;53.150;6.504;2022-08-18T16:28:39;2.17;;;1.35;;
52438;SDS011;38359;53.150;6.504;2022-08-18T16:31:06;1.67;;;1.40;;
52438;SDS011;38359;53.150;6.504;2022-08-18T16:33:33;4.45;;;1.60;;
52438;SDS011;38359;53.150;6.504;2022-08-18T16:36:03;3.25;;;1.23;;
52438;SDS011;38359;53.150;6.504;2022-08-18T16:38:31;2.33;;;1.30;;
52438;SDS011;38359;53.150;6.504;2022-08-18T16:41:02;3.38;;;1.45;;
52438;SDS011;38359;53.150;6.504;2022-08-18T16:43:36;2.90;;;1.30;;
52438;SDS011;38359;53.150;6.504;2022-08-18T16:46:02;2.17;;;1.13;;
52438;SDS011;38359;53.150;6.504;2022-08-18T16:48:29;1.25;;;1.00;;
52438;SDS011;38359;53.150;6.504;2022-08-18T16:50:56;2.38;;;1.42;;
52438;SDS011;38359;53.150;6.504;2022-08-18T16:53:22;2.65;;;1.58;;
52438;SDS011;38359;53.150;6.504;2022-08-18T16:55:48;3.80;;;1.25;;
52438;SDS011;38359;53.150;6.504;2022-08-18T16:58:14;1.55;;;1.10;;
52438;SDS011;38359;53.150;6.504;2022-08-18T17:01:00;2.60;;;1.20;;
52438;SDS011;38359;53.150;6.504;2022-08-18T17:03:45;3.25;;;1.42;;
52438;SDS011;38359;53.150;6.504;2022-08-18T17:06:29;1.55;;;1.20;;
52438;SDS011;38359;53.150;6.504;2022-08-18T17:08:56;2.33;;;1.27;;
52438;SDS011;38359;53.150;6.504;2022-08-18T17:11:23;3.20;;;1.40;;
52438;SDS011;38359;53.150;6.504;2022-08-18T17:13:54;3.67;;;1.50;;
52438;SDS011;38359;53.150;6.504;2022-08-18T17:16:23;3.03;;;1.20;;
52438;SDS011;38359;53.150;6.504;2022-08-18T17:18:52;2.35;;;1.38;;
52438;SDS011;38359;53.150;6.504;2022-08-18T17:21:23;2.35;;;1.38;;
52438;SDS011;38359;53.150;6.504;2022-08-18T17:23:51;2.40;;;1.38;;